createdAt,value
2016-09-08T00:00:52.754Z,46.99
2016-09-08T00:01:52.763Z,46.89
2016-09-08T00:02:52.461Z,46.89
2016-09-08T00:03:52.781Z,46.8
2016-09-08T00:04:52.835Z,47.09
2016-09-08T00:05:53.381Z,47.19
2016-09-08T00:06:52.806Z,46.87
2016-09-08T00:07:52.809Z,46.89
2016-09-08T00:08:52.818Z,46.99
2016-09-08T00:09:53.950Z,46.7
2016-09-08T00:10:52.831Z,46.7
2016-09-08T00:11:52.835Z,46.8
2016-09-08T00:12:52.850Z,46.89
2016-09-08T00:13:52.540Z,46.89
2016-09-08T00:14:52.859Z,46.7
2016-09-08T00:15:52.866Z,46.77
2016-09-08T00:16:52.873Z,46.99
2016-09-08T00:17:52.569Z,46.97
2016-09-08T00:18:52.888Z,46.6
2016-09-08T00:19:52.912Z,46.99
2016-09-08T00:20:53.441Z,46.89
2016-09-08T00:21:52.600Z,46.99
2016-09-08T00:22:52.916Z,46.8
2016-09-08T00:23:52.613Z,46.89
2016-09-08T00:24:52.619Z,46.99
2016-09-08T00:25:52.940Z,46.89
2016-09-08T00:26:52.948Z,46.7
2016-09-08T00:27:52.651Z,46.8
2016-09-08T00:28:52.650Z,46.8
2016-09-08T00:29:52.657Z,46.89
2016-09-08T00:30:52.668Z,46.8
2016-09-08T00:31:53.624Z,46.89
2016-09-08T00:32:52.993Z,46.77
2016-09-08T00:33:52.687Z,46.8
2016-09-08T00:34:53.007Z,46.89
2016-09-08T00:35:52.706Z,46.99
2016-09-08T00:36:53.024Z,46.99
2016-09-08T00:37:53.029Z,46.6
2016-09-08T00:38:52.725Z,46.7
2016-09-08T00:39:53.046Z,46.8
2016-09-08T00:40:53.057Z,46.7
2016-09-08T00:41:52.749Z,46.7
2016-09-08T00:42:53.023Z,46.8
2016-09-08T00:43:52.763Z,46.87
2016-09-08T00:44:52.770Z,46.8
2016-09-08T00:45:53.088Z,47.09
2016-09-08T00:46:53.099Z,46.89
2016-09-08T00:47:52.793Z,47.19
2016-09-08T00:48:53.121Z,47.28
2016-09-08T00:49:53.121Z,47.19
2016-09-08T00:50:52.819Z,47.19
2016-09-08T00:51:53.923Z,47.19
2016-09-08T00:52:52.838Z,47.16
2016-09-08T00:53:53.136Z,47.28
2016-09-08T00:54:53.164Z,47.09
2016-09-08T00:55:54.289Z,47.19
2016-09-08T00:56:53.172Z,47.16
2016-09-08T00:57:52.866Z,46.97
2016-09-08T00:58:53.192Z,47.09
2016-09-08T00:59:53.195Z,47.16
2016-09-08T01:00:53.218Z,46.97
2016-09-08T01:01:53.211Z,47.16
2016-09-08T01:02:53.213Z,47.19
2016-09-08T01:03:52.913Z,46.97
2016-09-08T01:04:53.232Z,47.09
2016-09-08T01:05:53.243Z,47.06
2016-09-08T01:06:53.983Z,47.16
2016-09-08T01:07:52.943Z,46.99
2016-09-08T01:08:53.261Z,47.19
2016-09-08T01:09:53.270Z,46.87
2016-09-08T01:10:53.276Z,47.36
2016-09-08T01:11:52.971Z,47.64
2016-09-08T01:12:53.342Z,47.28
2016-09-08T01:13:52.985Z,46.89
2016-09-08T01:14:53.307Z,47.38
2016-09-08T01:15:53.313Z,47.36
2016-09-08T01:16:53.322Z,47.36
2016-09-08T01:17:54.170Z,47.06
2016-09-08T01:18:53.028Z,47.36
2016-09-08T01:19:53.030Z,47.47
2016-09-08T01:20:53.351Z,47.55
2016-09-08T01:21:53.045Z,47.64
2016-09-08T01:22:53.366Z,47.55
2016-09-08T01:23:53.060Z,47.55
2016-09-08T01:24:53.065Z,47.45
2016-09-08T01:25:53.387Z,47.55
2016-09-08T01:26:53.081Z,47.64
2016-09-08T01:27:53.139Z,47.45
2016-09-08T01:28:53.795Z,47.64
2016-09-08T01:29:53.413Z,47.36
2016-09-08T01:30:53.112Z,47.67
2016-09-08T01:31:53.117Z,47.67
2016-09-08T01:32:53.125Z,47.55
2016-09-08T01:33:53.132Z,46.89
2016-09-08T01:34:53.505Z,47.38
2016-09-08T01:35:53.148Z,47.16
2016-09-08T01:36:53.469Z,47.19
2016-09-08T01:37:53.476Z,47.09
2016-09-08T01:38:53.481Z,47.47
2016-09-08T01:39:53.992Z,47.57
2016-09-08T01:40:53.498Z,47.55
2016-09-08T01:41:53.506Z,47.67
2016-09-08T01:42:53.200Z,47.38
2016-09-08T01:43:53.530Z,47.67
2016-09-08T01:44:53.216Z,47.47
2016-09-08T01:45:53.224Z,47.36
2016-09-08T01:46:53.238Z,47.06
2016-09-08T01:47:53.237Z,47.38
2016-09-08T01:48:53.296Z,47.64
2016-09-08T01:49:53.254Z,47.67
2016-09-08T01:50:53.922Z,47.47
2016-09-08T01:51:53.581Z,47.45
2016-09-08T01:52:53.591Z,47.38
2016-09-08T01:53:53.594Z,47.45
2016-09-08T01:54:53.603Z,47.74
2016-09-08T01:55:53.299Z,47.74
2016-09-08T01:56:53.304Z,47.64
2016-09-08T01:57:53.313Z,47.74
2016-09-08T01:58:53.634Z,48.13
2016-09-08T01:59:53.642Z,48.13
2016-09-08T02:00:53.649Z,47.64
2016-09-08T02:01:53.491Z,48.15
2016-09-08T02:02:53.666Z,48.22
2016-09-08T02:03:54.721Z,47.84
2016-09-08T02:04:53.370Z,47.64
2016-09-08T02:05:53.685Z,48.13
2016-09-08T02:06:53.379Z,48.06
2016-09-08T02:07:53.386Z,48.13
2016-09-08T02:08:53.706Z,48.13
2016-09-08T02:09:53.713Z,47.74
2016-09-08T02:10:53.723Z,47.77
2016-09-08T02:11:53.413Z,47.64
2016-09-08T02:12:53.424Z,47.74
2016-09-08T02:13:53.742Z,47.26
2016-09-08T02:14:54.701Z,47.55
2016-09-08T02:15:53.494Z,47.55
2016-09-08T02:16:53.471Z,47.67
2016-09-08T02:17:53.459Z,47.74
2016-09-08T02:18:53.467Z,47.36
2016-09-08T02:19:53.476Z,47.74
2016-09-08T02:20:53.793Z,47.55
2016-09-08T02:21:53.802Z,47.94
2016-09-08T02:22:53.859Z,48.03
2016-09-08T02:23:53.816Z,48.03
2016-09-08T02:24:53.512Z,47.94
2016-09-08T02:25:54.835Z,48.32
2016-09-08T02:26:53.838Z,48.03
2016-09-08T02:27:53.845Z,48.52
2016-09-08T02:28:53.855Z,48.42
2016-09-08T02:29:53.546Z,48.61
2016-09-08T02:30:53.876Z,48.13
2016-09-08T02:31:53.561Z,48.22
2016-09-08T02:32:53.566Z,48.22
2016-09-08T02:33:53.578Z,48.42
2016-09-08T02:34:53.581Z,48.52
2016-09-08T02:35:53.590Z,48.22
2016-09-08T02:36:54.657Z,48.22
2016-09-08T02:37:53.917Z,48.61
2016-09-08T02:38:53.611Z,48.32
2016-09-08T02:39:53.623Z,48.32
2016-09-08T02:40:53.627Z,48.42
2016-09-08T02:41:53.635Z,48.22
2016-09-08T02:42:53.744Z,48.42
2016-09-08T02:43:53.963Z,48.42
2016-09-08T02:44:53.972Z,48.32
2016-09-08T02:45:53.977Z,48.42
2016-09-08T02:46:53.674Z,48.13
2016-09-08T02:47:55.044Z,47.74
2016-09-08T02:48:53.685Z,48.32
2016-09-08T02:49:54.010Z,48.22
2016-09-08T02:50:54.016Z,48.22
2016-09-08T02:51:54.023Z,48.22
2016-09-08T02:52:54.030Z,48.22
2016-09-08T02:53:54.037Z,47.94
2016-09-08T02:54:54.045Z,47.84
2016-09-08T02:55:53.743Z,47.94
2016-09-08T02:56:53.748Z,48.03
2016-09-08T02:57:54.080Z,47.74
2016-09-08T02:58:54.162Z,48.22
2016-09-08T02:59:53.767Z,47.84
2016-09-08T03:00:54.090Z,48.03
2016-09-08T03:01:54.096Z,47.94
2016-09-08T03:02:53.792Z,47.74
2016-09-08T03:03:53.799Z,47.94
2016-09-08T03:04:54.120Z,48.52
2016-09-08T03:05:54.128Z,48.71
2016-09-08T03:06:53.822Z,47.84
2016-09-08T03:07:53.829Z,48.13
2016-09-08T03:08:54.150Z,48.22
2016-09-08T03:09:54.844Z,48.61
2016-09-08T03:10:54.160Z,48.03
2016-09-08T03:11:53.860Z,48.42
2016-09-08T03:13:04.444Z,48.42
2016-09-08T03:13:53.875Z,48.42
2016-09-08T03:14:53.883Z,48.13
2016-09-08T03:15:54.252Z,48.61
2016-09-08T03:16:54.208Z,48.42
2016-09-08T03:17:54.213Z,48.22
2016-09-08T03:18:53.907Z,48.13
2016-09-08T03:19:54.231Z,48.13
2016-09-08T03:20:54.329Z,48.42
2016-09-08T03:21:54.244Z,48.22
2016-09-08T03:22:54.253Z,48.13
2016-09-08T03:23:54.310Z,48.22
2016-09-08T03:24:54.868Z,48.32
2016-09-08T03:25:53.961Z,48.42
2016-09-08T03:26:54.284Z,48.22
2016-09-08T03:27:54.384Z,48.61
2016-09-08T03:28:54.299Z,48.32
2016-09-08T03:29:54.307Z,48.13
2016-09-08T03:30:54.312Z,48.42
2016-09-08T03:31:54.320Z,48.42
2016-09-08T03:32:54.323Z,48.52
2016-09-08T03:33:54.022Z,48.32
2016-09-08T03:34:54.339Z,48.52
2016-09-08T03:35:54.038Z,48.61
2016-09-08T03:36:54.045Z,48.42
2016-09-08T03:37:54.053Z,48.42
2016-09-08T03:38:54.372Z,48.13
2016-09-08T03:39:54.766Z,48.52
2016-09-08T03:40:54.073Z,48.52
2016-09-08T03:41:54.080Z,48.22
2016-09-08T03:42:54.401Z,48.61
2016-09-08T03:43:54.094Z,48.61
2016-09-08T03:44:55.368Z,48.61
2016-09-08T03:45:54.111Z,48.42
2016-09-08T03:46:54.174Z,48.42
2016-09-08T03:47:54.439Z,48.61
2016-09-08T03:48:54.446Z,48.32
2016-09-08T03:49:54.454Z,48.52
2016-09-08T03:50:54.147Z,48.42
2016-09-08T03:51:54.155Z,48.71
2016-09-08T03:52:54.160Z,48.81
2016-09-08T03:53:54.484Z,48.52
2016-09-08T03:54:54.490Z,48.61
2016-09-08T03:55:55.299Z,48.61
2016-09-08T03:56:54.504Z,48.61
2016-09-08T03:57:54.514Z,48.32
2016-09-08T03:58:54.520Z,48.81
2016-09-08T03:59:54.527Z,48.61
2016-09-08T04:00:54.540Z,48.9
2016-09-08T04:01:54.542Z,48.81
2016-09-08T04:02:54.550Z,48.42
2016-09-08T04:03:54.558Z,48.81
2016-09-08T04:04:54.616Z,48.81
2016-09-08T04:05:54.261Z,48.71
2016-09-08T04:06:55.482Z,49
2016-09-08T04:07:54.587Z,48.71
2016-09-08T04:08:54.382Z,48.9
2016-09-08T04:09:54.289Z,48.81
2016-09-08T04:10:54.296Z,48.71
2016-09-08T04:11:54.668Z,48.71
2016-09-08T04:12:54.674Z,49
2016-09-08T04:13:54.633Z,49
2016-09-08T04:14:54.641Z,49
2016-09-08T04:15:54.649Z,48.81
2016-09-08T04:16:54.653Z,48.71
2016-09-08T04:17:54.348Z,48.9
2016-09-08T04:18:54.669Z,49
2016-09-08T04:19:54.362Z,48.9
2016-09-08T04:20:54.683Z,48.81
2016-09-08T04:21:55.493Z,49
2016-09-08T04:22:55.050Z,48.71
2016-09-08T04:23:54.706Z,49
2016-09-08T04:24:54.399Z,48.81
2016-09-08T04:25:54.719Z,48.9
2016-09-08T04:26:54.726Z,48.52
2016-09-08T04:27:54.737Z,49
2016-09-08T04:28:54.432Z,49
2016-09-08T04:29:54.437Z,49.19
2016-09-08T04:30:54.452Z,49.29
2016-09-08T04:31:54.765Z,48.71
2016-09-08T04:32:55.509Z,48.81
2016-09-08T04:33:54.467Z,48.52
2016-09-08T04:34:54.785Z,49.29
2016-09-08T04:35:54.792Z,48.42
2016-09-08T04:36:54.488Z,49.19
2016-09-08T04:37:54.807Z,49.29
2016-09-08T04:38:54.504Z,48.42
2016-09-08T04:39:54.823Z,48.9
2016-09-08T04:40:54.831Z,49.19
2016-09-08T04:41:54.524Z,49.29
2016-09-08T04:42:54.581Z,49.29
2016-09-08T04:43:54.890Z,49.29
2016-09-08T04:44:54.544Z,49
2016-09-08T04:45:54.868Z,49.39
2016-09-08T04:46:54.873Z,49
2016-09-08T04:47:54.883Z,48.61
2016-09-08T04:48:54.890Z,49
2016-09-08T04:49:54.895Z,49.1
2016-09-08T04:50:54.643Z,48.71
2016-09-08T04:51:54.599Z,48.9
2016-09-08T04:52:55.908Z,48.9
2016-09-08T04:53:54.926Z,48.42
2016-09-08T04:54:55.235Z,49.29
2016-09-08T04:55:54.631Z,49
2016-09-08T04:56:54.635Z,48.71
2016-09-08T04:57:54.953Z,48.71
2016-09-08T04:58:54.966Z,48.81
2016-09-08T04:59:54.969Z,48.61
2016-09-08T05:00:54.981Z,48.42
2016-09-08T05:01:54.677Z,48.9
2016-09-08T05:02:54.680Z,48.71
2016-09-08T05:03:55.000Z,48.9
2016-09-08T05:04:54.745Z,49.19
2016-09-08T05:05:55.015Z,48.42
2016-09-08T05:06:55.022Z,48.81
2016-09-08T05:07:54.717Z,48.71
2016-09-08T05:08:55.042Z,48.9
2016-09-08T05:09:55.045Z,49
2016-09-08T05:10:55.054Z,48.52
2016-09-08T05:11:55.062Z,49.29
2016-09-08T05:12:54.769Z,48.71
2016-09-08T05:13:55.078Z,49.39
2016-09-08T05:14:54.770Z,49.39
2016-09-08T05:15:55.091Z,48.61
2016-09-08T05:16:55.100Z,49.39
2016-09-08T05:17:54.791Z,49.39
2016-09-08T05:18:54.849Z,49.29
2016-09-08T05:19:55.116Z,48.81
2016-09-08T05:20:55.128Z,49.1
2016-09-08T05:21:54.826Z,49.29
2016-09-08T05:22:55.143Z,49.39
2016-09-08T05:23:55.199Z,49.39
2016-09-08T05:24:54.845Z,49.19
2016-09-08T05:25:54.853Z,48.52
2016-09-08T05:26:55.170Z,48.42
2016-09-08T05:27:55.324Z,49.29
2016-09-08T05:28:55.238Z,49.49
2016-09-08T05:29:56.047Z,49.39
2016-09-08T05:30:55.202Z,49.39
2016-09-08T05:31:54.898Z,49.19
2016-09-08T05:32:54.913Z,48.61
2016-09-08T05:33:55.223Z,49.19
2016-09-08T05:34:54.920Z,49.39
2016-09-08T05:35:55.238Z,48.81
2016-09-08T05:36:55.261Z,49
2016-09-08T05:37:54.942Z,49.19
2016-09-08T05:38:55.261Z,49.39
2016-09-08T05:39:55.918Z,49.39
2016-09-08T05:40:55.913Z,49.29
2016-09-08T05:41:55.285Z,48.81
2016-09-08T05:42:55.341Z,49.29
2016-09-08T05:43:55.299Z,49.39
2016-09-08T05:44:54.992Z,49.1
2016-09-08T05:45:55.315Z,49.19
2016-09-08T05:46:55.007Z,48.61
2016-09-08T05:47:55.328Z,49.39
2016-09-08T05:48:55.071Z,49.49
2016-09-08T05:49:55.344Z,49.19
2016-09-08T05:50:55.037Z,49.39
2016-09-08T05:51:55.343Z,48.81
2016-09-08T05:52:55.053Z,48.9
2016-09-08T05:53:55.058Z,48.81
2016-09-08T05:54:55.379Z,48.71
2016-09-08T05:55:55.075Z,48.71
2016-09-08T05:56:55.081Z,48.71
2016-09-08T05:57:55.089Z,48.61
2016-09-08T05:58:55.408Z,48.71
2016-09-08T05:59:55.103Z,48.9
2016-09-08T06:00:55.427Z,48.9
2016-09-08T06:01:55.119Z,48.32
2016-09-08T06:02:55.639Z,48.71
2016-09-08T06:03:55.506Z,48.61
2016-09-08T06:04:55.458Z,48.71
2016-09-08T06:05:55.466Z,48.42
2016-09-08T06:06:55.159Z,48.71
2016-09-08T06:07:55.166Z,48.81
2016-09-08T06:08:55.486Z,48.52
2016-09-08T06:09:55.178Z,48.9
2016-09-08T06:10:55.188Z,48.9
2016-09-08T06:11:55.509Z,48.61
2016-09-08T06:13:55.210Z,48.61
2016-09-08T06:14:55.531Z,48.61
2016-09-08T06:15:56.688Z,48.64
2016-09-08T06:16:55.544Z,48.35
2016-09-08T06:17:55.552Z,48.44
2016-09-08T06:18:55.248Z,48.61
2016-09-08T06:19:55.256Z,48.64
2016-09-08T06:20:55.580Z,48.15
2016-09-08T06:21:55.582Z,48.15
2016-09-08T06:22:55.591Z,48.35
2016-09-08T06:23:55.650Z,48.15
2016-09-08T06:24:55.604Z,48.25
2016-09-08T06:25:55.301Z,48.54
2016-09-08T06:26:56.420Z,48.44
2016-09-08T06:27:55.627Z,48.15
2016-09-08T06:28:55.684Z,48.06
2016-09-08T06:29:55.693Z,47.96
2016-09-08T06:30:55.651Z,48.44
2016-09-08T06:31:55.656Z,48.47
2016-09-08T06:32:55.666Z,48.54
2016-09-08T06:33:55.669Z,48.44
2016-09-08T06:34:55.680Z,47.77
2016-09-08T06:35:55.374Z,48.37
2016-09-08T06:36:55.695Z,48.37
2016-09-08T06:37:56.154Z,48.18
2016-09-08T06:38:55.708Z,48.37
2016-09-08T06:39:55.715Z,47.69
2016-09-08T06:40:55.727Z,47.98
2016-09-08T06:41:55.734Z,47.3
2016-09-08T06:43:55.439Z,47.03
2016-09-08T06:44:55.445Z,47.72
2016-09-08T06:45:55.766Z,47.62
2016-09-08T06:46:55.777Z,47.62
2016-09-08T06:47:55.791Z,47.79
2016-09-08T06:48:56.032Z,48.57
2016-09-08T06:49:55.491Z,48.08
2016-09-08T06:50:55.811Z,48.27
2016-09-08T06:51:55.820Z,48.47
2016-09-08T06:52:55.830Z,48.44
2016-09-08T06:53:55.836Z,48.54
2016-09-08T06:54:55.844Z,48.18
2016-09-08T06:55:55.541Z,48.44
2016-09-08T06:56:55.547Z,48.47
2016-09-08T06:57:55.620Z,48.64
2016-09-08T06:58:55.563Z,48.44
2016-09-08T06:59:55.630Z,48.25
2016-09-08T07:00:55.581Z,48.25
2016-09-08T07:01:56.006Z,48.35
2016-09-08T07:02:55.911Z,48.18
2016-09-08T07:03:55.919Z,48.54
2016-09-08T07:04:56.018Z,48.64
2016-09-08T07:05:56.036Z,48.64
2016-09-08T07:06:55.997Z,48.54
2016-09-08T07:07:55.963Z,48.74
2016-09-08T07:08:56.341Z,48.35
2016-09-08T07:09:56.107Z,48.54
2016-09-08T07:10:55.664Z,48.64
2016-09-08T07:11:55.984Z,48.54
2016-09-08T07:13:56.084Z,48.25
2016-09-08T07:14:56.010Z,48.66
2016-09-08T07:15:55.801Z,48.44
2016-09-08T07:16:56.027Z,48.44
2016-09-08T07:17:56.039Z,48.64
2016-09-08T07:18:56.092Z,48.47
2016-09-08T07:19:55.737Z,48.54
2016-09-08T07:20:56.107Z,48.54
2016-09-08T07:21:55.754Z,48.54
2016-09-08T07:22:56.069Z,48.64
2016-09-08T07:23:56.087Z,48.64
2016-09-08T07:24:55.790Z,48.44
2016-09-08T07:25:56.177Z,48.54
2016-09-08T07:26:55.873Z,48.44
2016-09-08T07:27:56.110Z,48.44
2016-09-08T07:28:56.120Z,48.35
2016-09-08T07:29:56.237Z,48.83
2016-09-08T07:30:55.822Z,49.02
2016-09-08T07:31:56.243Z,48.83
2016-09-08T07:32:55.889Z,48.74
2016-09-08T07:33:57.047Z,48.64
2016-09-08T07:34:55.927Z,48.44
2016-09-08T07:35:56.182Z,48.35
2016-09-08T07:36:56.210Z,48.93
2016-09-08T07:37:55.876Z,48.83
2016-09-08T07:38:55.941Z,48.74
2016-09-08T07:39:56.254Z,48.83
2016-09-08T07:40:55.983Z,49.02
2016-09-08T07:41:56.238Z,48.74
2016-09-08T07:42:56.434Z,48.64
2016-09-08T07:43:56.240Z,48.74
2016-09-08T07:44:56.257Z,48.64
2016-09-08T07:45:56.026Z,48.83
2016-09-08T07:46:55.943Z,48.74
2016-09-08T07:47:56.135Z,48.64
2016-09-08T07:48:56.270Z,48.74
2016-09-08T07:49:56.624Z,48.83
2016-09-08T07:50:56.017Z,48.83
2016-09-08T07:51:55.981Z,48.74
2016-09-08T07:52:55.997Z,48.64
2016-09-08T07:53:56.312Z,48.74
2016-09-08T07:54:56.343Z,48.74
2016-09-08T07:55:56.012Z,48.74
2016-09-08T07:56:56.074Z,48.83
2016-09-08T07:57:56.137Z,48.83
2016-09-08T07:58:57.589Z,49.02
2016-09-08T07:59:56.501Z,48.74
2016-09-08T08:00:56.411Z,48.83
2016-09-08T08:01:56.114Z,48.44
2016-09-08T08:02:56.073Z,48.44
2016-09-08T08:03:56.450Z,48.54
2016-09-08T08:04:56.449Z,48.54
2016-09-08T08:05:57.178Z,48.44
2016-09-08T08:06:56.131Z,48.54
2016-09-08T08:07:56.105Z,48.54
2016-09-08T08:08:56.519Z,48.15
2016-09-08T08:09:56.119Z,48.35
2016-09-08T08:10:56.258Z,48.54
2016-09-08T08:11:56.464Z,48.54
2016-09-08T08:12:56.543Z,48.64
2016-09-08T08:13:56.465Z,48.44
2016-09-08T08:14:56.194Z,48.15
2016-09-08T08:15:56.529Z,48.06
2016-09-08T08:16:56.487Z,48.64
2016-09-08T08:17:56.519Z,48.25
2016-09-08T08:18:56.500Z,48.15
2016-09-08T08:19:57.515Z,48.06
2016-09-08T08:20:56.586Z,48.06
2016-09-08T08:21:56.527Z,48.44
2016-09-08T08:22:56.583Z,48.25
2016-09-08T08:23:56.623Z,48.25
2016-09-08T08:24:56.648Z,48.35
2016-09-08T08:25:56.592Z,47.6
2016-09-08T08:26:57.321Z,47.02
2016-09-08T08:27:56.600Z,46.16
2016-09-08T08:28:56.587Z,45.8
2016-09-08T08:29:56.279Z,45.21
2016-09-08T08:30:56.600Z,45.12
2016-09-08T08:31:56.651Z,44.95
2016-09-08T08:32:56.303Z,45.04
2016-09-08T08:33:56.504Z,45.14
2016-09-08T08:34:56.816Z,45.14
2016-09-08T08:35:56.745Z,45.04
2016-09-08T08:36:56.446Z,45.04
2016-09-08T08:37:56.479Z,45.14
2016-09-08T08:38:56.452Z,44.95
2016-09-08T08:39:56.448Z,45.04
2016-09-08T08:40:57.898Z,44.75
2016-09-08T08:41:56.820Z,45.04
2016-09-08T08:42:56.453Z,44.56
2016-09-08T08:43:56.521Z,44.75
2016-09-08T08:44:56.485Z,44.75
2016-09-08T08:45:56.505Z,44.56
2016-09-08T08:46:56.811Z,44.95
2016-09-08T08:47:56.495Z,44.75
2016-09-08T08:48:56.578Z,44.37
2016-09-08T08:49:56.465Z,44.75
2016-09-08T08:50:56.634Z,44.56
2016-09-08T08:51:56.849Z,44.65
2016-09-08T08:52:57.023Z,44.75
2016-09-08T08:53:56.838Z,45.04
2016-09-08T08:54:58.087Z,44.95
2016-09-08T08:55:56.841Z,45.04
2016-09-08T08:56:56.842Z,45.14
2016-09-08T08:57:56.556Z,44.75
2016-09-08T08:58:56.607Z,45.34
2016-09-08T08:59:57.558Z,45.14
2016-09-08T09:00:56.581Z,46.09
2016-09-08T09:01:57.046Z,45.7
2016-09-08T09:02:56.957Z,45.8
2016-09-08T09:03:56.998Z,46.48
2016-09-08T09:04:57.019Z,46.58
2016-09-08T09:05:56.949Z,46.67
2016-09-08T09:06:56.995Z,46.28
2016-09-08T09:07:56.676Z,46.58
2016-09-08T09:08:56.701Z,46.36
2016-09-08T09:09:57.041Z,46.48
2016-09-08T09:10:56.706Z,46.45
2016-09-08T09:11:57.850Z,46.55
2016-09-08T09:12:57.033Z,46.58
2016-09-08T09:13:57.075Z,46.45
2016-09-08T09:14:56.782Z,46.38
2016-09-08T09:15:56.697Z,46.36
2016-09-08T09:16:56.794Z,46.65
2016-09-08T09:17:56.780Z,46.84
2016-09-08T09:18:57.319Z,47.33
2016-09-08T09:19:56.850Z,46.65
2016-09-08T09:20:56.767Z,46.55
2016-09-08T09:21:57.220Z,46.55
2016-09-08T09:22:56.831Z,46.38
2016-09-08T09:23:56.877Z,46.45
2016-09-08T09:24:56.777Z,46.45
2016-09-08T09:25:57.202Z,46.28
2016-09-08T09:26:56.889Z,46.55
2016-09-08T09:27:57.238Z,46.86
2016-09-08T09:28:56.872Z,46.94
2016-09-08T09:29:57.272Z,46.65
2016-09-08T09:30:57.191Z,47.03
2016-09-08T09:31:57.154Z,46.94
2016-09-08T09:32:56.875Z,47.33
2016-09-08T09:33:57.327Z,47.03
2016-09-08T09:34:57.015Z,47.03
2016-09-08T09:35:58.240Z,46.65
2016-09-08T09:36:57.247Z,46.36
2016-09-08T09:37:57.276Z,46.38
2016-09-08T09:38:57.397Z,46.55
2016-09-08T09:39:56.905Z,46.86
2016-09-08T09:40:57.279Z,46.65
2016-09-08T09:41:57.033Z,46.65
2016-09-08T09:42:56.931Z,46.45
2016-09-08T09:43:57.332Z,46.65
2016-09-08T09:44:57.334Z,46.94
2016-09-08T09:45:57.075Z,47.35
2016-09-08T09:46:57.372Z,47.33
2016-09-08T09:47:57.427Z,46.94
2016-09-08T09:48:57.314Z,46.84
2016-09-08T09:49:57.039Z,47.23
2016-09-08T09:50:57.387Z,46.94
2016-09-08T09:51:57.413Z,46.94
2016-09-08T09:52:57.443Z,46.84
2016-09-08T09:53:57.407Z,47.03
2016-09-08T09:54:57.490Z,46.94
2016-09-08T09:55:57.178Z,46.65
2016-09-08T09:56:57.420Z,47.23
2016-09-08T09:57:57.658Z,47.25
2016-09-08T09:58:57.494Z,46.94
2016-09-08T09:59:57.473Z,46.84
2016-09-08T10:00:57.171Z,46.96
2016-09-08T10:01:57.450Z,47.23
2016-09-08T10:02:57.178Z,46.86
2016-09-08T10:03:57.285Z,47.23
2016-09-08T10:04:57.318Z,46.86
2016-09-08T10:05:57.298Z,46.96
2016-09-08T10:06:57.589Z,46.75
2016-09-08T10:07:57.586Z,47.25
2016-09-08T10:08:57.517Z,46.94
2016-09-08T10:09:57.595Z,46.75
2016-09-08T10:10:57.555Z,46.84
2016-09-08T10:11:57.275Z,47.13
2016-09-08T10:12:57.283Z,46.94
2016-09-08T10:13:57.547Z,46.94
2016-09-08T10:14:57.627Z,46.96
2016-09-08T10:15:57.695Z,46.94
2016-09-08T10:16:57.292Z,46.77
2016-09-08T10:17:57.266Z,47.55
2016-09-08T10:18:57.330Z,47.62
2016-09-08T10:19:57.248Z,47.45
2016-09-08T10:20:57.602Z,47.25
2016-09-08T10:21:58.294Z,47.16
2016-09-08T10:22:57.755Z,47.03
2016-09-08T10:23:57.371Z,47.42
2016-09-08T10:24:57.767Z,47.64
2016-09-08T10:25:57.322Z,47.42
2016-09-08T10:26:58.430Z,47.62
2016-09-08T10:27:57.739Z,48.13
2016-09-08T10:28:57.791Z,47.93
2016-09-08T10:29:57.782Z,47.64
2016-09-08T10:30:57.393Z,48.52
2016-09-08T10:31:57.400Z,48.61
2016-09-08T10:32:57.759Z,48.42
2016-09-08T10:33:57.491Z,48.32
2016-09-08T10:34:57.702Z,48.22
2016-09-08T10:35:57.457Z,48.13
2016-09-08T10:36:58.689Z,48.22
2016-09-08T10:37:57.757Z,48.32
2016-09-08T10:38:57.555Z,48.32
2016-09-08T10:39:57.838Z,48.32
2016-09-08T10:40:57.594Z,48.52
2016-09-08T10:41:57.738Z,48.32
2016-09-08T10:42:57.923Z,48.32
2016-09-08T10:43:57.513Z,47.64
2016-09-08T10:44:57.807Z,48.13
2016-09-08T10:45:57.509Z,48.03
2016-09-08T10:46:57.991Z,48.22
2016-09-08T10:47:57.876Z,48.22
2016-09-08T10:48:57.912Z,47.74
2016-09-08T10:49:57.596Z,48.32
2016-09-08T10:50:57.840Z,47.93
2016-09-08T10:51:57.594Z,48.13
2016-09-08T10:52:57.924Z,48.13
2016-09-08T10:53:57.966Z,47.93
2016-09-08T10:54:58.010Z,48.52
2016-09-08T10:55:58.003Z,48.32
2016-09-08T10:56:58.030Z,48.03
2016-09-08T10:57:57.577Z,48.03
2016-09-08T10:58:57.973Z,48.71
2016-09-08T10:59:57.938Z,48.61
2016-09-08T11:00:57.989Z,48.71
2016-09-08T11:01:58.035Z,48.52
2016-09-08T11:02:57.997Z,48.42
2016-09-08T11:03:58.070Z,48.32
2016-09-08T11:04:58.066Z,48.61
2016-09-08T11:05:58.117Z,48.32
2016-09-08T11:06:58.085Z,48.13
2016-09-08T11:07:57.660Z,48.13
2016-09-08T11:08:58.017Z,48.32
2016-09-08T11:09:58.129Z,48.42
2016-09-08T11:10:58.146Z,48.52
2016-09-08T11:11:57.823Z,48.71
2016-09-08T11:12:58.138Z,48.71
2016-09-08T11:13:58.115Z,48.42
2016-09-08T11:14:58.161Z,48.61
2016-09-08T11:15:58.052Z,48.52
2016-09-08T11:16:57.788Z,48.71
2016-09-08T11:17:58.115Z,48.32
2016-09-08T11:18:58.150Z,48.52
2016-09-08T11:19:57.751Z,48.42
2016-09-08T11:20:58.142Z,48.22
2016-09-08T11:21:58.188Z,48.52
2016-09-08T11:22:57.839Z,48.22
2016-09-08T11:23:58.174Z,48.13
2016-09-08T11:24:58.836Z,48.61
2016-09-08T11:25:58.207Z,48.32
2016-09-08T11:26:58.176Z,48.13
2016-09-08T11:27:58.461Z,48.3
2016-09-08T11:28:58.197Z,48.32
2016-09-08T11:29:58.204Z,48.13
2016-09-08T11:30:57.855Z,48.13
2016-09-08T11:31:58.218Z,48.13
2016-09-08T11:32:57.899Z,47.93
2016-09-08T11:33:57.916Z,48.13
2016-09-08T11:34:58.280Z,48.03
2016-09-08T11:35:58.299Z,47.93
2016-09-08T11:36:58.027Z,48.61
2016-09-08T11:37:58.340Z,48.61
2016-09-08T11:38:58.355Z,48.39
2016-09-08T11:39:58.328Z,48.42
2016-09-08T11:40:59.203Z,48.13
2016-09-08T11:41:58.023Z,47.93
2016-09-08T11:42:58.385Z,48.13
2016-09-08T11:43:58.023Z,47.74
2016-09-08T11:44:58.362Z,47.74
2016-09-08T11:45:58.955Z,47.93
2016-09-08T11:46:58.445Z,48.13
2016-09-08T11:47:57.975Z,47.83
2016-09-08T11:48:58.647Z,47.83
2016-09-08T11:49:58.367Z,48.42
2016-09-08T11:50:58.127Z,48.13
2016-09-08T11:51:58.092Z,48.13
2016-09-08T11:52:58.460Z,47.74
2016-09-08T11:53:58.464Z,48.32
2016-09-08T11:54:58.472Z,48.22
2016-09-08T11:55:58.147Z,47.64
2016-09-08T11:56:58.538Z,48.13
2016-09-08T11:57:58.505Z,48.22
2016-09-08T11:58:58.539Z,48.22
2016-09-08T11:59:58.513Z,47.55
2016-09-08T12:00:58.399Z,47.25
2016-09-08T12:01:58.167Z,48.22
2016-09-08T12:02:58.567Z,48.22
2016-09-08T12:03:58.499Z,48.22
2016-09-08T12:04:58.194Z,47.74
2016-09-08T12:05:58.123Z,47.83
2016-09-08T12:06:58.503Z,47.74
2016-09-08T12:07:58.208Z,47.74
2016-09-08T12:08:58.539Z,47.35
2016-09-08T12:09:58.528Z,47.93
2016-09-08T12:10:58.304Z,47.74
2016-09-08T12:11:58.224Z,47.45
2016-09-08T12:12:59.235Z,47.74
2016-09-08T12:13:58.370Z,47.35
2016-09-08T12:14:58.651Z,48.03
2016-09-08T12:15:58.590Z,47.45
2016-09-08T12:16:58.716Z,47.83
2016-09-08T12:17:58.225Z,48.13
2016-09-08T12:18:58.732Z,47.83
2016-09-08T12:19:58.339Z,47.64
2016-09-08T12:20:58.662Z,47.64
2016-09-08T12:21:58.770Z,48.42
2016-09-08T12:22:58.367Z,47.83
2016-09-08T12:23:58.814Z,47.55
2016-09-08T12:24:58.795Z,48.22
2016-09-08T12:25:58.666Z,48.03
2016-09-08T12:26:59.586Z,47.74
2016-09-08T12:27:58.617Z,47.64
2016-09-08T12:28:58.752Z,47.93
2016-09-08T12:29:58.836Z,47.83
2016-09-08T12:30:58.402Z,47.45
2016-09-08T12:31:58.401Z,47.55
2016-09-08T12:32:58.765Z,48.22
2016-09-08T12:33:58.803Z,48.13
2016-09-08T12:34:58.431Z,48.22
2016-09-08T12:35:58.710Z,47.55
2016-09-08T12:36:58.797Z,48.22
2016-09-08T12:37:58.570Z,48.52
2016-09-08T12:38:58.769Z,47.35
2016-09-08T12:39:58.730Z,48.22
2016-09-08T12:40:58.755Z,48.22
2016-09-08T12:41:58.421Z,48.32
2016-09-08T12:42:58.877Z,47.93
2016-09-08T12:43:58.934Z,48.13
2016-09-08T12:44:58.764Z,48.13
2016-09-08T12:45:58.864Z,48.03
2016-09-08T12:46:58.878Z,47.93
2016-09-08T12:47:58.553Z,48.22
2016-09-08T12:48:58.809Z,48.32
2016-09-08T12:49:58.490Z,48.52
2016-09-08T12:50:58.563Z,48.71
2016-09-08T12:51:58.865Z,48.9
2016-09-08T12:52:58.595Z,49
2016-09-08T12:53:58.870Z,49.39
2016-09-08T12:54:58.845Z,49.29
2016-09-08T12:55:58.567Z,49.19
2016-09-08T12:56:58.906Z,49
2016-09-08T12:57:59.003Z,48.9
2016-09-08T12:58:58.946Z,48.61